Vano — SBNM — position and weather

sailwx.info

Track history (hours):
 
Tides and Currents Weather Stations Pressure Air Temp Water Temp Dewpoint Dewpoint Depression Visibility Wind Speed Wind Dir Waves Ship Positions

Vano

Last reported at 2014-Dec-20 02:33 UTC. Time now 2014-Dec-20 03:04 UTC.
Position N 59°20' E 018°04'.

Length 38 m; draft 1.8 m.

Type: Passenger vessel. MMSI: 265520400.

Date/timePositionNaut miles runAvg speedWind from/ knotsBaromVisibWave heightAir tempDewpointWater temp
2014-Dec-20 02:33N 59°20' E 018°04'0 0.0
2014-Dec-20 01:33N 59°20' E 018°04'0 0.0
2014-Dec-20 00:33N 59°20' E 018°04'0 0.0
2014-Dec-19 23:33N 59°20' E 018°04'0 0.0
2014-Dec-19 22:34N 59°20' E 018°04'0 0.0
2014-Dec-19 21:33N 59°20' E 018°04'0 0.0
2014-Dec-19 20:33N 59°20' E 018°04'0 0.0
2014-Dec-19 19:33N 59°20' E 018°04'0 0.0
2014-Dec-19 18:33N 59°20' E 018°04'0 0.0
2014-Dec-19 17:33N 59°20' E 018°04'0 0.0
2014-Dec-19 16:32N 59°20' E 018°04'0 0.0
2014-Dec-19 15:31N 59°20' E 018°04'0 0.0
2014-Dec-19 14:33N 59°20' E 018°04'0 0.0
2014-Dec-19 13:33N 59°20' E 018°04'0 0.0
2014-Dec-19 12:33N 59°20' E 018°04'0 0.0
2014-Dec-19 11:32N 59°20' E 018°04'0 0.0
2014-Dec-19 10:32N 59°20' E 018°04'0 0.0
2014-Dec-19 09:32N 59°20' E 018°04'0 0.0
2014-Dec-19 08:33N 59°20' E 018°04'0 0.0
2014-Dec-19 07:33N 59°20' E 018°04'0 0.0
2014-Dec-19 06:32N 59°20' E 018°04'0 0.0
2014-Dec-19 05:32N 59°20' E 018°04'0 0.0
2014-Dec-19 04:32N 59°20' E 018°04'0 0.0
2014-Dec-19 03:32N 59°20' E 018°04'0 0.0
2014-Dec-19 02:33N 59°20' E 018°04'0 0.0
2014-Dec-19 01:33N 59°20' E 018°04'0 0.0
2014-Dec-19 00:33N 59°20' E 018°04'0 0.0
2014-Dec-18 23:33N 59°20' E 018°04'0 0.0
2014-Dec-18 22:33N 59°20' E 018°04'0 0.0
2014-Dec-18 21:33N 59°20' E 018°04'0 0.0
2014-Dec-18 20:33N 59°20' E 018°04'0 0.0
2014-Dec-18 19:33N 59°20' E 018°04'0 0.0
2014-Dec-18 18:33N 59°20' E 018°04'0 0.0
2014-Dec-18 17:33N 59°20' E 018°04'0 0.0
2014-Dec-18 16:33N 59°20' E 018°04'0 0.0
2014-Dec-18 15:32N 59°20' E 018°04'0 0.0
2014-Dec-18 14:32N 59°20' E 018°04'0 0.0
2014-Dec-18 13:32N 59°20' E 018°04'0 0.0
2014-Dec-18 12:33N 59°20' E 018°04'0 0.0
2014-Dec-18 11:33N 59°20' E 018°04'3 2.6
2014-Dec-18 10:33N 59°19' E 018°10'124 5.7
2014-Dec-17 12:33N 57°23' E 016°47'10 2.9
2014-Dec-17 09:14N 57°17' E 016°33'6 9.5
2014-Dec-17 08:33N 57°16' E 016°45'5 5.0
2014-Dec-17 07:31N 57°16' E 016°35'  
2014-Dec-13 00:32N 57°16' E 016°28'0 0.0
2014-Dec-12 16:33N 57°16' E 016°28'0 0.0
2014-Dec-12 15:33N 57°16' E 016°28'0 0.0
2014-Dec-12 14:33N 57°16' E 016°28'0 0.0
2014-Dec-12 13:33N 57°16' E 016°28'0 0.0
2014-Dec-12 12:33N 57°16' E 016°28'0 0.0
2014-Dec-12 11:32N 57°16' E 016°28'0 0.0
2014-Dec-12 10:32N 57°16' E 016°28'0 0.0
2014-Dec-12 09:31N 57°16' E 016°28'0 0.0
2014-Dec-12 08:33N 57°16' E 016°28'0 0.0
2014-Dec-12 07:31N 57°16' E 016°28'0 0.0
2014-Dec-12 06:33N 57°16' E 016°28'0 0.0
2014-Dec-12 05:33N 57°16' E 016°28'0 0.0
2014-Dec-12 04:33N 57°16' E 016°28'0 0.0
2014-Dec-12 03:24N 57°16' E 016°28'0 0.0
2014-Dec-12 02:28N 57°16' E 016°28'0 0.0
2014-Dec-12 01:25N 57°16' E 016°28'0 0.0
2014-Dec-11 22:26N 57°16' E 016°28'0 0.0
2014-Dec-11 21:31N 57°16' E 016°28'0 0.0
2014-Dec-11 20:13N 57°16' E 016°28'0 0.0
2014-Dec-11 19:18N 57°16' E 016°28'0 0.0
2014-Dec-11 16:09N 57°16' E 016°28'0 0.0
2014-Dec-11 15:26N 57°16' E 016°28'0 0.0
2014-Dec-11 13:29N 57°16' E 016°28'0 0.0
2014-Dec-11 12:20N 57°16' E 016°28'0 0.0
2014-Dec-11 11:25N 57°16' E 016°28'0 0.0
2014-Dec-11 10:33N 57°16' E 016°28'0 0.0
2014-Dec-11 09:09N 57°16' E 016°28'0 0.0
2014-Dec-11 08:24N 57°16' E 016°28'0 0.0
2014-Dec-11 06:28N 57°16' E 016°28'0 0.0
2014-Dec-11 05:29N 57°16' E 016°28'0 0.0
2014-Dec-11 04:32N 57°16' E 016°28'0 0.0
2014-Dec-11 03:31N 57°16' E 016°28'0 0.0
2014-Dec-11 02:32N 57°16' E 016°28'0 0.0
2014-Dec-11 01:33N 57°16' E 016°28'0 0.0
2014-Dec-11 00:32N 57°16' E 016°28'0 0.0
2014-Dec-10 23:33N 57°16' E 016°28'0 0.0
2014-Dec-10 22:33N 57°16' E 016°28'0 0.0
2014-Dec-10 21:33N 57°16' E 016°28'0 0.0
2014-Dec-10 20:33N 57°16' E 016°28'0 0.0
2014-Dec-10 19:32N 57°16' E 016°28'0 0.0
2014-Dec-10 18:33N 57°16' E 016°28'0 0.0
2014-Dec-10 17:33N 57°16' E 016°28'0 0.0
2014-Dec-10 16:33N 57°16' E 016°28'0 0.0
2014-Dec-10 15:33N 57°16' E 016°28'0 0.0
2014-Dec-10 14:11N 57°16' E 016°28'0 0.0
2014-Dec-10 13:32N 57°16' E 016°28'0 0.0
2014-Dec-10 12:28N 57°16' E 016°28'  
Track history (hours):
 
Tides and Currents Weather Stations Pressure Air Temp Water Temp Dewpoint Dewpoint Depression Visibility Wind Speed Wind Dir Waves Ship Positions

Vano

Last reported at 2014-Dec-20 02:33 UTC. Time now 2014-Dec-20 03:04 UTC.
Position N 59°20' E 018°04'.

Length 38 m; draft 1.8 m.

Type: Passenger vessel. MMSI: 265520400.

Date/timePositionNaut miles runAvg speedWind from/ knotsBaromVisibWave heightAir tempDewpointWater temp
2014-Dec-20 02:33N 59°20' E 018°04'0 0.0
2014-Dec-20 01:33N 59°20' E 018°04'0 0.0
2014-Dec-20 00:33N 59°20' E 018°04'0 0.0
2014-Dec-19 23:33N 59°20' E 018°04'0 0.0
2014-Dec-19 22:34N 59°20' E 018°04'0 0.0
2014-Dec-19 21:33N 59°20' E 018°04'0 0.0
2014-Dec-19 20:33N 59°20' E 018°04'0 0.0
2014-Dec-19 19:33N 59°20' E 018°04'0 0.0
2014-Dec-19 18:33N 59°20' E 018°04'0 0.0
2014-Dec-19 17:33N 59°20' E 018°04'0 0.0
2014-Dec-19 16:32N 59°20' E 018°04'0 0.0
2014-Dec-19 15:31N 59°20' E 018°04'0 0.0
2014-Dec-19 14:33N 59°20' E 018°04'0 0.0
2014-Dec-19 13:33N 59°20' E 018°04'0 0.0
2014-Dec-19 12:33N 59°20' E 018°04'0 0.0
2014-Dec-19 11:32N 59°20' E 018°04'0 0.0
2014-Dec-19 10:32N 59°20' E 018°04'0 0.0
2014-Dec-19 09:32N 59°20' E 018°04'0 0.0
2014-Dec-19 08:33N 59°20' E 018°04'0 0.0
2014-Dec-19 07:33N 59°20' E 018°04'0 0.0
2014-Dec-19 06:32N 59°20' E 018°04'0 0.0
2014-Dec-19 05:32N 59°20' E 018°04'0 0.0
2014-Dec-19 04:32N 59°20' E 018°04'0 0.0
2014-Dec-19 03:32N 59°20' E 018°04'0 0.0
2014-Dec-19 02:33N 59°20' E 018°04'0 0.0
2014-Dec-19 01:33N 59°20' E 018°04'0 0.0
2014-Dec-19 00:33N 59°20' E 018°04'0 0.0
2014-Dec-18 23:33N 59°20' E 018°04'0 0.0
2014-Dec-18 22:33N 59°20' E 018°04'0 0.0
2014-Dec-18 21:33N 59°20' E 018°04'0 0.0
2014-Dec-18 20:33N 59°20' E 018°04'0 0.0
2014-Dec-18 19:33N 59°20' E 018°04'0 0.0
2014-Dec-18 18:33N 59°20' E 018°04'0 0.0
2014-Dec-18 17:33N 59°20' E 018°04'0 0.0
2014-Dec-18 16:33N 59°20' E 018°04'0 0.0
2014-Dec-18 15:32N 59°20' E 018°04'0 0.0
2014-Dec-18 14:32N 59°20' E 018°04'0 0.0
2014-Dec-18 13:32N 59°20' E 018°04'0 0.0
2014-Dec-18 12:33N 59°20' E 018°04'0 0.0
2014-Dec-18 11:33N 59°20' E 018°04'3 2.6
2014-Dec-18 10:33N 59°19' E 018°10'124 5.7
2014-Dec-17 12:33N 57°23' E 016°47'10 2.9
2014-Dec-17 09:14N 57°17' E 016°33'6 9.5
2014-Dec-17 08:33N 57°16' E 016°45'5 5.0
2014-Dec-17 07:31N 57°16' E 016°35'  
2014-Dec-13 00:32N 57°16' E 016°28'0 0.0
2014-Dec-12 16:33N 57°16' E 016°28'0 0.0
2014-Dec-12 15:33N 57°16' E 016°28'0 0.0
2014-Dec-12 14:33N 57°16' E 016°28'0 0.0
2014-Dec-12 13:33N 57°16' E 016°28'0 0.0
2014-Dec-12 12:33N 57°16' E 016°28'0 0.0
2014-Dec-12 11:32N 57°16' E 016°28'0 0.0
2014-Dec-12 10:32N 57°16' E 016°28'0 0.0
2014-Dec-12 09:31N 57°16' E 016°28'0 0.0
2014-Dec-12 08:33N 57°16' E 016°28'0 0.0
2014-Dec-12 07:31N 57°16' E 016°28'0 0.0
2014-Dec-12 06:33N 57°16' E 016°28'0 0.0
2014-Dec-12 05:33N 57°16' E 016°28'0 0.0
2014-Dec-12 04:33N 57°16' E 016°28'0 0.0
2014-Dec-12 03:24N 57°16' E 016°28'0 0.0
2014-Dec-12 02:28N 57°16' E 016°28'0 0.0
2014-Dec-12 01:25N 57°16' E 016°28'0 0.0
2014-Dec-11 22:26N 57°16' E 016°28'0 0.0
2014-Dec-11 21:31N 57°16' E 016°28'0 0.0
2014-Dec-11 20:13N 57°16' E 016°28'0 0.0
2014-Dec-11 19:18N 57°16' E 016°28'0 0.0
2014-Dec-11 16:09N 57°16' E 016°28'0 0.0
2014-Dec-11 15:26N 57°16' E 016°28'0 0.0
2014-Dec-11 13:29N 57°16' E 016°28'0 0.0
2014-Dec-11 12:20N 57°16' E 016°28'0 0.0
2014-Dec-11 11:25N 57°16' E 016°28'0 0.0
2014-Dec-11 10:33N 57°16' E 016°28'0 0.0
2014-Dec-11 09:09N 57°16' E 016°28'0 0.0
2014-Dec-11 08:24N 57°16' E 016°28'0 0.0
2014-Dec-11 06:28N 57°16' E 016°28'0 0.0
2014-Dec-11 05:29N 57°16' E 016°28'0 0.0
2014-Dec-11 04:32N 57°16' E 016°28'0 0.0
2014-Dec-11 03:31N 57°16' E 016°28'0 0.0
2014-Dec-11 02:32N 57°16' E 016°28'0 0.0
2014-Dec-11 01:33N 57°16' E 016°28'0 0.0
2014-Dec-11 00:32N 57°16' E 016°28'0 0.0
2014-Dec-10 23:33N 57°16' E 016°28'0 0.0
2014-Dec-10 22:33N 57°16' E 016°28'0 0.0
2014-Dec-10 21:33N 57°16' E 016°28'0 0.0
2014-Dec-10 20:33N 57°16' E 016°28'0 0.0
2014-Dec-10 19:32N 57°16' E 016°28'0 0.0
2014-Dec-10 18:33N 57°16' E 016°28'0 0.0
2014-Dec-10 17:33N 57°16' E 016°28'0 0.0
2014-Dec-10 16:33N 57°16' E 016°28'0 0.0
2014-Dec-10 15:33N 57°16' E 016°28'0 0.0
2014-Dec-10 14:11N 57°16' E 016°28'0 0.0
2014-Dec-10 13:32N 57°16' E 016°28'0 0.0
2014-Dec-10 12:28N 57°16' E 016°28'  

Dump ship's entire track history